Gages Lake, Illinois
Current Conditions -  °F | °C
As of 10:15 PM on Sunday 23 Nov 2014 (Local Time) from KUGN Reporting Station
Light Rain Light Rain  
Wind Chill: 46°   Ceiling: 1300
Heat Index: 46°   Visibility: 2.5mi
Dew Point: 45°   Wind: 0mph
Humidity: 96%   Direction: NA
Pressure: 29.14"   Gusts: NA
Location:  42.3279°N, 88.0546°W
Report Text: KUGN 240415Z AUTO 00000KT 2 1/2SM -RA BR FEW002 OVC013 08/07 A2914 RMK AO2 PRESFR P0003 T00780072
Loading
Personal Weather Stations






























Interactive Weather Map New forecast layout! Learn more

10-Day Weather Forecast

Advertisements
Track Severe Weather on mobile